createdAt,value
2019-06-07T00:00:38.016Z,89.11
2019-06-07T00:02:57.382Z,89.39
2019-06-07T00:05:26.519Z,89.62
2019-06-07T00:08:07.025Z,90.00
2019-06-07T00:10:36.694Z,89.79
2019-06-07T00:12:59.314Z,89.85
2019-06-07T00:15:29.345Z,89.97
2019-06-07T00:17:58.803Z,90.18
2019-06-07T00:20:27.958Z,89.96
2019-06-07T00:22:57.147Z,90.16
2019-06-07T00:25:26.336Z,90.17
2019-06-07T00:27:55.573Z,90.05
2019-06-07T00:30:51.179Z,90.04
2019-06-07T00:32:56.081Z,89.90
2019-06-07T00:35:25.229Z,90.08
2019-06-07T00:37:58.001Z,89.76
2019-06-07T00:40:31.874Z,90.21
2019-06-07T00:42:58.201Z,90.60
2019-06-07T00:45:27.337Z,90.32
2019-06-07T00:47:56.530Z,90.21
2019-06-07T00:50:25.691Z,90.26
2019-06-07T00:53:14.582Z,90.46
2019-06-07T00:55:27.718Z,90.40
2019-06-07T00:57:57.155Z,90.58
2019-06-07T01:00:26.525Z,90.33
2019-06-07T01:02:55.726Z,90.27
2019-06-07T01:05:31.159Z,90.24
2019-06-07T01:07:55.751Z,90.34
2019-06-07T01:10:51.670Z,90.59
2019-06-07T01:12:56.025Z,90.19
2019-06-07T01:15:28.845Z,90.48
2019-06-07T01:20:27.107Z,90.62
2019-06-07T01:22:56.341Z,90.69
2019-06-07T01:25:26.448Z,90.51
2019-06-07T01:27:56.152Z,90.42
2019-06-07T01:30:26.693Z,90.43
2019-06-07T01:32:56.038Z,90.49
2019-06-07T01:35:25.567Z,90.54
2019-06-07T01:37:54.902Z,90.33
2019-06-07T01:40:30.511Z,90.56
2019-06-07T01:42:55.155Z,90.81
2019-06-07T01:45:27.032Z,90.70
2019-06-07T01:47:55.432Z,90.84
2019-06-07T01:50:26.973Z,90.93
2019-06-07T01:52:55.544Z,90.84
2019-06-07T01:55:27.295Z,90.72
2019-06-07T01:57:55.672Z,90.65
2019-06-07T02:00:26.675Z,90.73
2019-06-07T02:02:55.872Z,90.71
2019-06-07T02:05:29.968Z,90.52
2019-06-07T02:07:56.038Z,90.90
2019-06-07T02:10:29.895Z,90.77
2019-06-07T02:12:56.188Z,90.86
2019-06-07T02:15:30.689Z,90.44
2019-06-07T02:17:57.762Z,90.65
2019-06-07T02:20:31.883Z,90.46
2019-06-07T02:22:58.085Z,90.53
2019-06-07T02:25:38.399Z,90.65
2019-06-07T02:28:25.948Z,91.16
2019-06-07T02:30:49.343Z,91.01
2019-06-07T02:33:02.488Z,91.19
2019-06-07T02:35:38.921Z,91.34
2019-06-07T02:38:02.536Z,91.22
2019-06-07T02:40:36.974Z,91.20
2019-06-07T02:43:03.146Z,91.42
2019-06-07T02:45:37.769Z,91.25
2019-06-07T02:48:03.441Z,91.06
2019-06-07T02:50:38.289Z,91.22
2019-06-07T02:53:04.730Z,91.25
2019-06-07T02:56:10.964Z,91.30
2019-06-07T02:58:04.841Z,91.36
2019-06-07T03:01:05.992Z,91.32
2019-06-07T03:03:16.612Z,91.46
2019-06-07T03:05:46.453Z,91.36
2019-06-07T03:08:16.474Z,91.43
2019-06-07T03:10:47.085Z,91.48
2019-06-07T03:13:18.945Z,91.87
2019-06-07T03:15:50.344Z,92.04
2019-06-07T03:18:41.211Z,91.70
2019-06-07T03:21:12.421Z,91.70
2019-06-07T03:23:43.431Z,92.05
2019-06-07T03:26:12.736Z,92.08
2019-06-07T03:28:42.114Z,92.20
2019-06-07T03:31:11.346Z,92.18
2019-06-07T03:33:45.278Z,92.16
2019-06-07T03:36:23.920Z,92.12
2019-06-07T03:38:44.331Z,92.08
2019-06-07T03:41:13.503Z,91.72
2019-06-07T03:43:42.739Z,91.55
2019-06-07T03:46:12.005Z,91.55
2019-06-07T03:48:41.592Z,91.87
2019-06-07T03:51:24.137Z,92.19
2019-06-07T03:53:41.844Z,92.23
2019-06-07T03:56:12.003Z,92.18
2019-06-07T03:58:49.814Z,91.89
2019-06-07T04:01:14.386Z,91.74
2019-06-07T04:03:50.920Z,91.24
2019-06-07T04:06:15.716Z,90.79
2019-06-07T04:08:44.915Z,90.75
2019-06-07T04:11:14.686Z,90.67
2019-06-07T04:13:43.999Z,90.51
2019-06-07T04:16:13.252Z,90.41
2019-06-07T04:18:42.705Z,90.21
2019-06-07T04:21:11.979Z,89.77
2019-06-07T04:23:45.518Z,89.65
2019-06-07T04:26:12.070Z,89.16
2019-06-07T04:29:30.438Z,88.69
2019-06-07T04:31:12.521Z,88.55
2019-06-07T04:33:43.743Z,88.14
2019-06-07T04:36:12.850Z,88.02
2019-06-07T04:38:43.025Z,87.74
2019-06-07T04:41:12.551Z,87.61
2019-06-07T04:43:42.834Z,87.09
2019-06-07T04:46:13.318Z,86.72
2019-06-07T04:48:44.002Z,86.33
2019-06-07T04:51:15.510Z,86.36
2019-06-07T04:53:44.792Z,86.19
2019-06-07T04:56:14.136Z,86.30
2019-06-07T04:58:43.967Z,86.11
2019-06-07T05:01:26.645Z,86.09
2019-06-07T05:03:44.631Z,86.01
2019-06-07T05:06:14.240Z,85.83
2019-06-07T05:08:43.947Z,85.54
2019-06-07T05:11:13.225Z,85.29
2019-06-07T05:13:43.834Z,84.97
2019-06-07T05:16:13.464Z,84.98
2019-06-07T05:18:43.384Z,84.46
2019-06-07T05:21:12.819Z,84.35
2019-06-07T05:24:05.645Z,83.39
2019-06-07T05:26:12.963Z,83.11
2019-06-07T05:28:43.033Z,82.42
2019-06-07T05:31:13.087Z,82.09
2019-06-07T05:33:43.674Z,81.75
2019-06-07T05:36:13.063Z,81.06
2019-06-07T05:38:44.723Z,80.72
2019-06-07T05:41:13.247Z,79.90
2019-06-07T05:43:51.509Z,78.90
2019-06-07T05:46:13.373Z,78.97
2019-06-07T05:48:43.931Z,79.04
2019-06-07T05:51:13.236Z,78.43
2019-06-07T05:53:45.702Z,77.96
2019-06-07T05:56:14.188Z,77.89
2019-06-07T05:58:44.733Z,78.15
2019-06-07T06:01:42.024Z,77.27
2019-06-07T06:03:48.118Z,76.66
2019-06-07T06:06:16.094Z,76.58
2019-06-07T06:08:47.942Z,76.61
2019-06-07T06:11:16.440Z,76.01
2019-06-07T06:14:05.946Z,75.83
2019-06-07T06:16:17.712Z,75.46
2019-06-07T06:18:48.832Z,74.49
2019-06-07T06:21:20.135Z,74.50
2019-06-07T06:23:52.070Z,73.17
2019-06-07T06:26:19.934Z,72.34
2019-06-07T06:28:49.901Z,72.48
2019-06-07T06:31:19.249Z,72.28
2019-06-07T06:33:49.860Z,70.57
2019-06-07T06:36:19.689Z,70.54
2019-06-07T06:38:51.303Z,70.45
2019-06-07T06:41:21.052Z,69.45
2019-06-07T06:43:52.498Z,69.50
2019-06-07T06:46:37.920Z,68.86
2019-06-07T06:48:55.133Z,68.67
2019-06-07T06:51:23.681Z,67.22
2019-06-07T06:53:53.026Z,67.36
2019-06-07T06:56:22.216Z,67.48
2019-06-07T07:01:23.514Z,66.13
2019-06-07T07:04:12.795Z,65.48
2019-06-07T07:06:26.322Z,65.34
2019-06-07T07:08:54.874Z,62.36
2019-06-07T07:11:24.075Z,63.17
2019-06-07T07:13:56.464Z,63.21
2019-06-07T07:16:24.405Z,61.19
2019-06-07T07:18:54.780Z,61.50
2019-06-07T07:21:24.307Z,60.68
2019-06-07T07:24:19.678Z,61.57
2019-06-07T07:26:24.439Z,60.05
2019-06-07T07:28:57.257Z,59.98
2019-06-07T07:31:27.564Z,59.05
2019-06-07T07:34:30.936Z,59.50
2019-06-07T07:36:39.364Z,58.69
2019-06-07T07:39:05.314Z,58.39
2019-06-07T07:41:30.764Z,57.79
2019-06-07T07:44:06.745Z,57.15
2019-06-07T07:46:30.950Z,57.75
2019-06-07T07:49:00.178Z,56.75
2019-06-07T07:51:29.349Z,55.91
2019-06-07T07:54:10.316Z,56.69
2019-06-07T07:56:30.511Z,57.39
2019-06-07T07:59:02.004Z,57.18
2019-06-07T08:01:30.957Z,56.55
2019-06-07T08:04:00.127Z,56.19
2019-06-07T08:06:29.353Z,55.60
2019-06-07T08:08:59.136Z,55.78
2019-06-07T08:11:28.376Z,55.67
2019-06-07T08:13:58.836Z,54.56
2019-06-07T08:16:28.204Z,53.72
2019-06-07T08:19:03.606Z,52.84
2019-06-07T08:21:28.882Z,52.62
2019-06-07T08:24:03.445Z,52.91
2019-06-07T08:26:29.144Z,51.40
2019-06-07T08:29:02.334Z,51.19
2019-06-07T08:31:29.384Z,50.71
2019-06-07T08:34:00.740Z,51.08
2019-06-07T08:36:41.960Z,51.54
2019-06-07T08:39:07.335Z,52.23
2019-06-07T08:41:33.483Z,51.17
2019-06-07T08:44:22.245Z,50.48
2019-06-07T08:46:33.673Z,49.87
2019-06-07T08:49:04.706Z,50.85
2019-06-07T08:51:34.108Z,49.92
2019-06-07T08:54:21.721Z,50.10
2019-06-07T08:56:36.074Z,48.49
2019-06-07T08:59:11.274Z,49.37
2019-06-07T09:01:36.467Z,49.46
2019-06-07T09:04:09.976Z,49.36
2019-06-07T09:09:08.359Z,49.46
2019-06-07T09:11:37.776Z,49.24
2019-06-07T09:14:09.195Z,49.40
2019-06-07T09:16:38.164Z,50.09
2019-06-07T09:19:10.873Z,49.18
2019-06-07T09:21:38.361Z,49.65
2019-06-07T09:24:11.476Z,48.64
2019-06-07T09:26:38.478Z,48.17
2019-06-07T09:29:11.477Z,48.05
2019-06-07T09:31:51.750Z,48.61
2019-06-07T09:34:13.934Z,48.19
2019-06-07T09:36:40.685Z,48.08
2019-06-07T09:39:12.461Z,46.75
2019-06-07T09:41:49.750Z,47.69
2019-06-07T09:44:23.933Z,46.81
2019-06-07T09:46:44.483Z,47.04
2019-06-07T09:49:28.932Z,45.91
2019-06-07T09:51:44.659Z,46.21
2019-06-07T09:55:02.296Z,45.42
2019-06-07T09:56:46.329Z,46.68
2019-06-07T09:59:15.883Z,46.53
2019-06-07T10:01:45.086Z,47.19
2019-06-07T10:04:30.360Z,47.54
2019-06-07T10:06:45.675Z,47.12
2019-06-07T10:11:45.985Z,46.54
2019-06-07T10:14:15.192Z,47.95
2019-06-07T10:16:47.120Z,47.29
2019-06-07T10:19:17.315Z,46.96
2019-06-07T10:21:46.477Z,45.87
2019-06-07T10:24:15.694Z,47.45
2019-06-07T10:26:45.025Z,45.79
2019-06-07T10:29:14.199Z,47.33
2019-06-07T10:31:43.546Z,47.80
2019-06-07T10:34:12.754Z,46.38
2019-06-07T10:36:42.066Z,45.98
2019-06-07T10:39:11.594Z,47.13
2019-06-07T10:41:41.169Z,46.24
2019-06-07T10:44:11.473Z,46.38
2019-06-07T10:46:40.924Z,45.13
2019-06-07T10:49:10.256Z,46.12
2019-06-07T10:51:39.552Z,46.40
2019-06-07T10:54:20.988Z,45.29
2019-06-07T10:56:39.991Z,46.55
2019-06-07T10:59:09.800Z,45.36
2019-06-07T11:01:40.328Z,44.55
2019-06-07T11:04:09.664Z,44.34
2019-06-07T11:06:40.393Z,44.18
2019-06-07T11:09:10.033Z,44.62
2019-06-07T11:11:39.632Z,44.71
2019-06-07T11:14:08.873Z,45.08
2019-06-07T11:16:38.086Z,44.39
2019-06-07T11:19:08.276Z,44.21
2019-06-07T11:21:37.520Z,44.28
2019-06-07T11:24:08.069Z,44.05
2019-06-07T11:26:37.269Z,42.82
2019-06-07T11:29:06.717Z,41.75
2019-06-07T11:31:35.937Z,42.11
2019-06-07T11:34:06.356Z,42.00
2019-06-07T11:36:35.939Z,41.24
2019-06-07T11:39:06.846Z,40.57
2019-06-07T11:41:36.023Z,40.63
2019-06-07T11:44:06.586Z,41.75
2019-06-07T11:46:35.944Z,41.58
2019-06-07T11:49:06.339Z,42.62
2019-06-07T11:51:35.756Z,42.24
2019-06-07T11:54:05.045Z,41.43
2019-06-07T11:56:34.273Z,41.72
2019-06-07T11:59:03.692Z,40.67
2019-06-07T12:01:32.887Z,41.73
2019-06-07T12:04:02.243Z,41.22
2019-06-07T12:06:31.482Z,41.50
2019-06-07T12:09:00.654Z,40.78
2019-06-07T12:11:29.827Z,41.12
2019-06-07T12:13:59.038Z,40.63
2019-06-07T12:16:28.264Z,40.15
2019-06-07T12:18:57.376Z,40.28
2019-06-07T12:21:26.548Z,40.86
2019-06-07T12:23:55.729Z,40.34
2019-06-07T12:26:24.992Z,39.72
2019-06-07T12:28:55.299Z,38.99
2019-06-07T12:31:24.499Z,39.26
2019-06-07T12:33:53.814Z,38.42
2019-06-07T12:36:23.139Z,38.21
2019-06-07T12:38:52.303Z,37.97
2019-06-07T12:41:22.371Z,38.36
2019-06-07T12:43:51.579Z,37.51
2019-06-07T12:46:26.370Z,37.65
2019-06-07T12:48:51.739Z,37.62
2019-06-07T12:51:21.317Z,37.07
2019-06-07T12:53:50.656Z,37.34
2019-06-07T12:56:20.111Z,37.51
2019-06-07T12:58:49.389Z,37.37
2019-06-07T13:01:20.913Z,36.48
2019-06-07T13:03:50.707Z,36.23
2019-06-07T13:06:19.887Z,35.72
2019-06-07T13:08:49.120Z,36.18
2019-06-07T13:11:24.586Z,34.75
2019-06-07T13:13:49.429Z,34.34
2019-06-07T13:16:20.021Z,35.38
2019-06-07T13:18:49.251Z,34.54
2019-06-07T13:21:18.488Z,33.59
2019-06-07T13:23:47.696Z,34.41
2019-06-07T13:26:18.301Z,35.32
2019-06-07T13:28:46.877Z,36.10
2019-06-07T13:31:16.422Z,36.82
2019-06-07T13:33:44.742Z,35.74
2019-06-07T13:36:13.036Z,34.13
2019-06-07T13:38:41.262Z,34.61
2019-06-07T13:41:09.498Z,33.89
2019-06-07T13:43:37.749Z,33.54
2019-06-07T13:46:06.397Z,34.09
2019-06-07T13:48:35.685Z,32.68
2019-06-07T13:51:05.049Z,32.51
2019-06-07T13:53:33.260Z,33.06
2019-06-07T13:56:02.320Z,32.85
2019-06-07T13:58:30.548Z,31.63
2019-06-07T14:00:58.788Z,33.40
2019-06-07T14:03:30.780Z,34.19
2019-06-07T14:05:57.056Z,35.02
2019-06-07T14:08:25.325Z,36.00
2019-06-07T14:10:53.597Z,35.08
2019-06-07T14:13:21.831Z,35.03
2019-06-07T14:15:50.112Z,34.33
2019-06-07T14:18:18.352Z,32.97
2019-06-07T14:20:46.600Z,32.14
2019-06-07T14:23:14.922Z,31.14
2019-06-07T14:25:43.233Z,29.77
2019-06-07T14:28:12.047Z,31.64
2019-06-07T14:30:40.430Z,32.47
2019-06-07T14:33:08.752Z,34.69
2019-06-07T14:35:37.066Z,33.49
2019-06-07T14:38:05.363Z,30.92
2019-06-07T14:40:34.202Z,30.48
2019-06-07T14:43:02.531Z,29.06
2019-06-07T14:45:32.713Z,29.51
2019-06-07T14:48:00.804Z,29.07
2019-06-07T14:50:30.169Z,29.12
2019-06-07T14:52:58.459Z,28.41
2019-06-07T14:55:26.993Z,29.54
2019-06-07T14:57:55.556Z,29.18
2019-06-07T15:00:26.607Z,29.40
2019-06-07T15:02:54.842Z,29.42
2019-06-07T15:05:26.665Z,29.48
2019-06-07T15:07:54.942Z,28.30
2019-06-07T15:10:23.231Z,27.74
2019-06-07T15:12:51.611Z,28.87
2019-06-07T15:15:19.842Z,27.15
2019-06-07T15:17:48.236Z,29.04
2019-06-07T15:20:16.489Z,30.24
2019-06-07T15:22:44.786Z,30.27
2019-06-07T15:25:14.685Z,29.03
2019-06-07T15:27:42.948Z,27.97
2019-06-07T15:30:12.505Z,29.01
2019-06-07T15:32:40.824Z,30.17
2019-06-07T15:35:09.189Z,30.18
2019-06-07T15:37:38.865Z,30.89
2019-06-07T15:40:09.218Z,31.06
2019-06-07T15:42:47.868Z,31.19
2019-06-07T15:45:07.398Z,32.06
2019-06-07T15:47:35.869Z,32.02
2019-06-07T15:50:04.321Z,31.90
2019-06-07T15:52:33.441Z,31.77
2019-06-07T15:55:02.280Z,33.49
2019-06-07T15:57:31.116Z,34.43
2019-06-07T16:00:00.317Z,35.02
2019-06-07T16:02:28.570Z,35.22
2019-06-07T16:04:56.815Z,36.34
2019-06-07T16:07:25.104Z,36.86
2019-06-07T16:09:53.486Z,37.16
2019-06-07T16:12:22.823Z,38.26
2019-06-07T16:14:51.187Z,37.93
2019-06-07T16:17:20.399Z,38.32
2019-06-07T16:19:49.599Z,38.03
2019-06-07T16:22:18.867Z,39.22
2019-06-07T16:24:48.104Z,40.12
2019-06-07T16:27:17.529Z,40.04
2019-06-07T16:29:46.738Z,40.14
2019-06-07T16:32:15.932Z,39.86
2019-06-07T16:34:46.037Z,40.39
2019-06-07T16:37:15.446Z,40.03
2019-06-07T16:39:44.810Z,40.46
2019-06-07T16:42:14.026Z,40.55
2019-06-07T16:44:44.714Z,40.75
2019-06-07T16:47:13.925Z,40.79
2019-06-07T16:49:43.082Z,40.93
2019-06-07T16:52:12.320Z,41.16
2019-06-07T16:54:41.564Z,41.12
2019-06-07T16:57:10.740Z,41.57
2019-06-07T16:59:40.970Z,42.41
2019-06-07T17:02:10.171Z,45.18
2019-06-07T17:04:39.486Z,44.51
2019-06-07T17:07:08.617Z,50.04
2019-06-07T17:09:38.134Z,53.70
2019-06-07T17:12:07.390Z,59.44
2019-06-07T17:14:36.576Z,63.39
2019-06-07T17:17:05.753Z,65.61
2019-06-07T17:19:34.967Z,67.65
2019-06-07T17:22:04.175Z,69.53
2019-06-07T17:24:33.402Z,72.17
2019-06-07T17:27:04.377Z,73.05
2019-06-07T17:29:34.840Z,73.75
2019-06-07T17:32:04.014Z,75.41
2019-06-07T17:34:33.284Z,76.04
2019-06-07T17:37:02.531Z,76.57
2019-06-07T17:39:31.748Z,76.10
2019-06-07T17:42:02.635Z,76.41
2019-06-07T17:44:32.106Z,75.92
2019-06-07T17:47:03.353Z,75.44
2019-06-07T17:49:32.573Z,74.56
2019-06-07T17:52:02.286Z,74.63
2019-06-07T17:54:31.652Z,74.82
2019-06-07T17:57:00.893Z,74.25
2019-06-07T17:59:30.116Z,74.36
2019-06-07T18:02:14.218Z,72.89
2019-06-07T18:04:30.653Z,71.99
2019-06-07T18:06:59.830Z,72.71
2019-06-07T18:09:29.612Z,72.42
2019-06-07T18:12:00.035Z,70.75
2019-06-07T18:14:29.559Z,72.21
2019-06-07T18:16:58.762Z,71.95
2019-06-07T18:19:28.012Z,73.18
2019-06-07T18:21:59.125Z,72.99
2019-06-07T18:24:28.367Z,72.10
2019-06-07T18:26:58.901Z,72.46
2019-06-07T18:29:28.325Z,72.60
2019-06-07T18:32:00.208Z,72.09
2019-06-07T18:34:28.600Z,72.41
2019-06-07T18:36:57.809Z,72.20
2019-06-07T18:39:27.062Z,71.40
2019-06-07T18:41:59.462Z,71.27
2019-06-07T18:44:28.866Z,70.54
2019-06-07T18:46:58.649Z,70.06
2019-06-07T18:49:28.247Z,69.12
2019-06-07T18:52:17.235Z,67.70
2019-06-07T18:54:46.881Z,66.78
2019-06-07T18:57:16.147Z,64.93
2019-06-07T18:59:45.435Z,64.16
2019-06-07T19:02:14.544Z,65.20
2019-06-07T19:04:43.877Z,64.03
2019-06-07T19:07:13.642Z,64.23
2019-06-07T19:09:44.482Z,64.36
2019-06-07T19:12:16.824Z,63.84
2019-06-07T19:14:49.227Z,63.74
2019-06-07T19:17:18.968Z,63.90
2019-06-07T19:19:49.745Z,65.05
2019-06-07T19:22:19.303Z,64.35
2019-06-07T19:24:49.987Z,63.22
2019-06-07T19:27:19.614Z,64.07
2019-06-07T19:29:49.027Z,63.93
2019-06-07T19:32:18.346Z,63.26
2019-06-07T19:34:48.263Z,63.76
2019-06-07T19:37:18.288Z,65.15
2019-06-07T19:39:47.833Z,64.69
2019-06-07T19:42:17.217Z,64.89
2019-06-07T19:44:54.265Z,64.43
2019-06-07T19:47:17.994Z,64.70
2019-06-07T19:49:48.936Z,63.81
2019-06-07T19:52:18.369Z,64.21
2019-06-07T19:54:47.887Z,63.53
2019-06-07T19:57:17.373Z,63.05
2019-06-07T19:59:46.672Z,62.53
2019-06-07T20:02:16.490Z,62.53
2019-06-07T20:04:46.072Z,61.47
2019-06-07T20:07:15.395Z,61.02
2019-06-07T20:09:46.791Z,61.62
2019-06-07T20:12:16.516Z,61.79
2019-06-07T20:14:45.885Z,61.42
2019-06-07T20:17:15.193Z,61.90
2019-06-07T20:19:45.570Z,62.25
2019-06-07T20:22:14.830Z,62.57
2019-06-07T20:24:46.029Z,62.53
2019-06-07T20:27:16.709Z,63.01
2019-06-07T20:29:45.912Z,63.01
2019-06-07T20:32:15.185Z,63.33
2019-06-07T20:34:44.890Z,63.13
2019-06-07T20:37:14.627Z,63.12
2019-06-07T20:39:44.299Z,62.51
2019-06-07T20:42:14.036Z,61.68
2019-06-07T20:44:43.269Z,62.19
2019-06-07T20:48:22.005Z,62.08
2019-06-07T20:50:52.198Z,61.82
2019-06-07T20:53:21.464Z,61.20
2019-06-07T20:55:50.678Z,60.74
2019-06-07T20:58:19.908Z,60.34
2019-06-07T21:00:49.451Z,60.92
2019-06-07T21:03:19.836Z,60.37
2019-06-07T21:05:50.612Z,60.08
2019-06-07T21:08:19.881Z,59.90
2019-06-07T21:10:49.087Z,59.89
2019-06-07T21:13:18.305Z,60.26
2019-06-07T21:15:49.253Z,59.59
2019-06-07T21:18:20.069Z,59.20
2019-06-07T21:20:49.526Z,59.80
2019-06-07T21:23:20.490Z,59.78
2019-06-07T21:25:49.671Z,59.25
2019-06-07T21:28:18.924Z,59.64
2019-06-07T21:30:48.350Z,59.96
2019-06-07T21:33:17.539Z,60.16
2019-06-07T21:35:48.075Z,60.88
2019-06-07T21:38:17.284Z,61.54
2019-06-07T21:40:46.512Z,61.23
2019-06-07T21:43:15.847Z,61.37
2019-06-07T21:45:45.046Z,61.81
2019-06-07T21:48:14.567Z,61.96
2019-06-07T21:50:43.890Z,61.43
2019-06-07T21:53:13.131Z,61.65
2019-06-07T21:55:42.278Z,61.51
2019-06-07T21:58:11.485Z,61.55
2019-06-07T22:01:17.411Z,61.35
2019-06-07T22:03:46.619Z,61.35
2019-06-07T22:06:16.012Z,61.07
2019-06-07T22:08:45.351Z,60.75
2019-06-07T22:11:14.521Z,61.15
2019-06-07T22:13:43.723Z,60.90
2019-06-07T22:16:26.791Z,60.87
2019-06-07T22:18:43.999Z,60.77
2019-06-07T22:21:13.151Z,60.28
2019-06-07T22:23:43.737Z,59.69
2019-06-07T22:26:13.349Z,60.07
2019-06-07T22:28:42.598Z,60.03
2019-06-07T22:31:12.830Z,60.50
2019-06-07T22:33:42.069Z,60.33
2019-06-07T22:36:11.258Z,60.24
2019-06-07T22:38:40.441Z,60.12
2019-06-07T22:41:09.655Z,60.01
2019-06-07T22:43:38.824Z,59.74
2019-06-07T22:46:08.711Z,59.46
2019-06-07T22:48:37.971Z,60.09
2019-06-07T22:51:10.512Z,59.17
2019-06-07T22:53:42.583Z,58.97
2019-06-07T22:56:37.422Z,58.95
2019-06-07T22:59:07.956Z,58.53
2019-06-07T23:01:37.586Z,58.28
2019-06-07T23:04:06.978Z,58.31
2019-06-07T23:06:36.168Z,58.14
2019-06-07T23:09:06.425Z,57.98
2019-06-07T23:11:35.584Z,58.30
2019-06-07T23:14:04.777Z,58.11
2019-06-07T23:16:33.941Z,58.02
2019-06-07T23:19:03.195Z,57.63
2019-06-07T23:21:32.484Z,58.02
2019-06-07T23:24:01.673Z,58.67
2019-06-07T23:26:30.860Z,57.93
2019-06-07T23:28:59.993Z,58.21
2019-06-07T23:31:29.187Z,58.00
2019-06-07T23:33:58.345Z,57.82
2019-06-07T23:36:27.646Z,58.47
2019-06-07T23:38:56.838Z,58.15
2019-06-07T23:41:26.032Z,58.61
2019-06-07T23:43:55.185Z,58.84
2019-06-07T23:46:24.383Z,58.96
2019-06-07T23:48:53.666Z,58.42
2019-06-07T23:51:22.845Z,58.82
2019-06-07T23:53:52.010Z,58.73
2019-06-07T23:56:22.233Z,58.40
2019-06-07T23:58:51.629Z,59.42
